Data for 03/23/2010

Time Sea-Level Adjusted Pressure Absolute Pressure Temperature Relative Humidity Dew Point   
(mb) (inHg) (mb) (inHg) (C) (F) (%) (C) (F)
00:05 1019 30.09 848 25.04 0.5 32.9 77 -3.1 26.4
00:10 1019 30.09 848 25.04 0.7 33.2 76 -3 26.6
00:15 1019 30.09 848 25.04 0.8 33.4 76 -3 26.5
00:20 1019 30.09 848 25.04 0.9 33.5 74 -3.2 26.2
00:25 1019 30.09 848 25.04 0.8 33.5 73 -3.4 25.9
00:30 1019 30.09 848 25.04 0.7 33.2 74 -3.4 25.8
00:35 1019 30.09 848 25.04 0.6 33.1 75 -3.4 25.9
00:40 1019 30.09 848 25.04 0.8 33.4 74 -3.4 25.9
00:45 1019 30.09 848 25.04 0.6 33 78 -2.8 27
00:50 1019 30.09 848 25.04 0.2 32.3 80 -2.9 26.7
00:55 1019 30.09 848 25.04 0.1 32.3 77 -3.4 25.9
01:00 1019 30.09 848 25.04 0.3 32.5 76 -3.6 25.6
01:05 1019 30.09 848 25.04 0.5 32.8 74 -3.6 25.5
01:10 1019 30.09 848 25.04 0.6 33 74 -3.5 25.7
01:15 1019 30.09 848 25.04 0.6 33.1 74 -3.5 25.7
01:20 1019 30.09 848 25.04 0.9 33.6 73 -3.5 25.7
01:25 1019 30.09 848 25.04 1 33.8 74 -3.1 26.5
01:30 1019 30.09 848 25.04 1 33.8 75 -3 26.6
01:35 1019 30.09 848 25.04 0.9 33.7 74 -3.1 26.4
01:40 1019 30.09 849 25.07 0.9 33.6 75 -3 26.6
01:45 1019 30.09 849 25.07 0.9 33.6 76 -2.9 26.9
01:50 1019 30.09 849 25.07 0.9 33.6 77 -2.7 27.2
01:55 1019 30.09 849 25.07 0.8 33.5 80 -2.2 28
02:00 1019 30.09 849 25.07 0.7 33.2 81 -2.2 28
02:05 1019 30.09 849 25.07 0.7 33.2 79 -2.6 27.4
02:10 1019 30.09 849 25.07 0.6 33.1 78 -2.7 27.1
02:15 1019 30.09 849 25.07 0.6 33 79 -2.7 27.2
02:20 1020 30.12 849 25.07 0.4 32.6 82 -2.4 27.7
02:25 1020 30.12 849 25.07 0 32.1 86 -2 28.4
02:30 1020 30.12 849 25.07 -0.3 31.5 89 -1.8 28.8
02:35 1020 30.12 849 25.07 -0.5 31.1 91 -1.7 28.9
02:40 1020 30.12 849 25.07 -0.6 31 91 -1.8 28.7
02:45 1020 30.12 849 25.07 -0.7 30.8 91 -1.9 28.5
02:50 1020 30.12 849 25.07 -0.7 30.7 92 -1.9 28.5
02:55 1020 30.12 849 25.07 -0.7 30.8 91 -1.9 28.6
03:00 1020 30.12 849 25.07 -0.7 30.8 93 -1.7 28.9
03:05 1020 30.12 849 25.07 -0.6 30.9 92 -1.7 28.9
03:10 1020 30.12 849 25.07 -0.5 31.2 91 -1.8 28.7
03:15 1020 30.12 849 25.07 -0.3 31.4 89 -1.9 28.5
03:20 1020 30.12 849 25.07 -0.3 31.5 90 -1.8 28.8
03:25 1020 30.12 849 25.07 -0.2 31.6 90 -1.7 28.9
03:30 1020 30.12 849 25.07 -0.3 31.4 90 -1.8 28.7
03:35 1020 30.12 849 25.07 -0.4 31.2 90 -1.8 28.7
03:40 1020 30.12 849 25.07 -0.6 31 90 -1.9 28.5
03:45 1020 30.12 849 25.07 -0.5 31 89 -2.1 28.3
03:50 1020 30.12 849 25.07 -0.5 31.2 89 -2.1 28.2
03:55 1020 30.12 849 25.07 -0.5 31 89 -2.1 28.2
04:00 1020 30.12 849 25.07 -0.5 31.1 88 -2.3 27.9
04:05 1020 30.12 849 25.07 -0.3 31.5 87 -2.3 27.9
04:10 1020 30.12 849 25.07 -0.4 31.3 86 -2.5 27.5
04:15 1020 30.12 849 25.07 -0.4 31.3 85 -2.6 27.4
04:20 1020 30.12 849 25.07 -0.3 31.5 84 -2.6 27.3
04:25 1020 30.12 849 25.07 -0.3 31.5 84 -2.7 27.2
04:30 1020 30.12 849 25.07 -0.3 31.5 84 -2.7 27.2
04:35 1020 30.12 849 25.07 -0.3 31.5 84 -2.7 27.2
04:40 1020 30.12 849 25.07 -0.3 31.5 83 -2.9 26.9
04:45 1020 30.12 849 25.07 -0.3 31.5 83 -2.8 27
04:50 1020 30.12 849 25.07 -0.3 31.4 84 -2.7 27.1
04:55 1020 30.12 849 25.07 -0.3 31.4 83 -2.9 26.8
05:00 1020 30.12 849 25.07 -0.2 31.6 83 -2.9 26.9
05:05 1020 30.12 849 25.07 -0.2 31.7 81 -3 26.6
05:10 1020 30.12 849 25.07 -0 31.9 80 -3.1 26.5
05:15 1020 30.12 849 25.07 0.1 32.2 80 -3 26.7
05:20 1020 30.12 849 25.07 0.1 32.3 79 -3.1 26.5
05:25 1020 30.12 849 25.07 0.2 32.3 79 -3.1 26.4
05:30 1020 30.12 849 25.07 0.1 32.1 79 -3.1 26.4
05:35 1020 30.12 849 25.07 -0 32 80 -3.1 26.5
05:40 1020 30.12 849 25.07 0 32 81 -3 26.7
05:45 1020 30.12 850 25.1 -0.1 31.8 81 -3 26.6
05:50 1020 30.12 850 25.1 -0.2 31.6 81 -3.1 26.5
05:55 1020 30.12 850 25.1 -0.3 31.5 82 -3.1 26.5
06:00 1020 30.12 850 25.1 -0.2 31.6 80 -3.2 26.2
06:05 1020 30.12 850 25.1 -0.2 31.6 80 -3.2 26.2
06:10 1021 30.15 850 25.1 -0.1 31.8 80 -3.2 26.3
06:15 1021 30.15 850 25.1 -0.2 31.7 82 -2.9 26.8
06:20 1021 30.15 850 25.1 -0.3 31.5 84 -2.6 27.2
06:25 1021 30.15 850 25.1 -0.5 31.1 85 -2.7 27.2
06:30 1021 30.15 850 25.1 -0.6 30.9 83 -3.2 26.2
06:35 1021 30.15 850 25.1 -0.4 31.3 81 -3.2 26.2
06:40 1021 30.15 850 25.1 -0.3 31.5 77 -3.7 25.3
06:45 1021 30.15 850 25.1 -0.3 31.5 80 -3.3 26
06:50 1021 30.15 850 25.1 -0.2 31.6 80 -3.2 26.2
06:55 1021 30.15 850 25.1 -0.2 31.6 81 -3.2 26.3
07:00 1021 30.15 850 25.1 -0.2 31.6 81 -3.1 26.4
07:05 1021 30.15 850 25.1 -0.2 31.6 76 -4 24.8
07:10 1021 30.15 850 25.1 -0 31.9 74 -4.1 24.7
07:15 1021 30.15 850 25.1 -0.1 31.9 74 -4.1 24.6
07:20 1021 30.15 850 25.1 -0 31.9 73 -4.3 24.2
07:25 1021 30.15 850 25.1 0.2 32.4 71 -4.4 24.1
07:30 1021 30.15 850 25.1 0.3 32.5 72 -4.2 24.4
07:35 1021 30.15 850 25.1 0.3 32.6 71 -4.3 24.2
07:40 1021 30.15 850 25.1 0.1 32.2 72 -4.3 24.3
07:45 1021 30.15 850 25.1 -0.1 31.9 73 -4.4 24.1
07:50 1021 30.15 850 25.1 -0.3 31.5 75 -4.2 24.4
07:55 1021 30.15 850 25.1 -0.4 31.3 75 -4.4 24.1
08:00 1021 30.15 850 25.1 -0.4 31.2 74 -4.5 23.9
08:05 1021 30.15 850 25.1 -0.4 31.3 73 -4.7 23.6
08:10 1021 30.15 850 25.1 -0.4 31.2 74 -4.6 23.8
08:15 1021 30.15 850 25.1 -0.5 31.1 74 -4.6 23.8
08:20 1021 30.15 850 25.1 -0.5 31.1 74 -4.6 23.8
08:25 1021 30.15 850 25.1 -0.3 31.4 73 -4.6 23.6
08:30 1021 30.15 850 25.1 -0.1 31.9 71 -4.7 23.5
08:35 1021 30.15 850 25.1 0.1 32.1 72 -4.5 23.9
08:40 1021 30.15 850 25.1 0 32.1 72 -4.4 24
08:45 1021 30.15 851 25.13 -0 32 72 -4.6 23.8
08:50 1021 30.15 851 25.13 -0.1 31.9 70 -4.9 23.2
08:55 1021 30.15 851 25.13 0 32 69 -5 23
09:00 1021 30.15 851 25.13 0 32 71 -4.7 23.6
09:05 1021 30.15 851 25.13 0.2 32.3 70 -4.8 23.4
09:10 1022 30.18 851 25.13 0.3 32.6 71 -4.4 24.1
09:15 1022 30.18 851 25.13 0.6 33 70 -4.3 24.3
09:20 1022 30.18 851 25.13 0.7 33.3 70 -4 24.7
09:25 1022 30.18 851 25.13 1 33.8 68 -4.3 24.3
09:30 1022 30.18 851 25.13 1.1 34 66 -4.6 23.7
09:35 1022 30.18 851 25.13 1.5 34.8 64 -4.6 23.8
09:40 1022 30.18 851 25.13 2.4 36.2 58 -5 23
09:45 1022 30.18 851 25.13 2.5 36.5 59 -4.7 23.6
09:50 1022 30.18 851 25.13 2.2 35.9 58 -5.2 22.6
09:55 1022 30.18 851 25.13 2.3 36.1 57 -5.5 22.1
10:00 1022 30.18 851 25.13 2.3 36.2 57 -5.3 22.4
10:05 1022 30.18 851 25.13 1.8 35.2 60 -5.2 22.6
10:10 1022 30.18 851 25.13 2 35.5 60 -5.1 22.8
10:15 1022 30.18 851 25.13 1.5 34.7 59 -5.6 21.9
10:20 1022 30.18 851 25.13 1.8 35.3 59 -5.3 22.5
10:25 1022 30.18 851 25.13 2.9 37.3 51 -6.1 20.9
10:30 1022 30.18 851 25.13 2.8 37.1 56 -5.1 22.8
10:35 1022 30.18 851 25.13 2.8 37 54 -5.6 21.9
10:40 1022 30.18 851 25.13 3.2 37.7 54 -5.3 22.5
10:45 1022 30.18 851 25.13 3.8 38.8 53 -4.9 23.3
10:50 1022 30.18 851 25.13 3.7 38.7 50 -5.8 21.5
10:55 1022 30.18 851 25.13 3.9 39 51 -5.3 22.4
11:00 1022 30.18 851 25.13 4.3 39.7 48 -5.6 21.9
11:05 1022 30.18 851 25.13 3.3 37.9 51 -5.8 21.5
11:10 1022 30.18 852 25.16 2.9 37.3 51 -6.2 20.8
11:15 1022 30.18 852 25.16 3.8 38.9 48 -6.1 21
11:20 1022 30.18 852 25.16 4.4 39.9 47 -5.9 21.3
11:25 1022 30.18 852 25.16 4.1 39.4 49 -5.5 22.1
11:30 1022 30.18 852 25.16 3.9 38.9 49 -5.9 21.4
11:35 1022 30.18 852 25.16 4.1 39.5 49 -5.6 22
11:40 1022 30.18 851 25.13 3.7 38.7 52 -5.3 22.4
11:45 1022 30.18 851 25.13 3.2 37.7 51 -6 21.2
11:50 1022 30.18 851 25.13 3.6 38.4 50 -5.9 21.4
11:55 1022 30.18 851 25.13 3.7 38.7 50 -5.9 21.4
12:00 1022 30.18 851 25.13 4.1 39.3 48 -5.9 21.3
12:05 1022 30.18 851 25.13 4.2 39.5 48 -5.8 21.5
12:10 1022 30.18 851 25.13 3.6 38.5 48 -6.3 20.7
12:15 1022 30.18 851 25.13 3.9 39.1 48 -6.2 20.8
12:20 1022 30.18 851 25.13 3.6 38.5 49 -6.2 20.8
12:25 1022 30.18 851 25.13 4.1 39.4 50 -5.5 22.2
12:30 1022 30.18 851 25.13 3.8 38.8 47 -6.6 20.2
12:35 1022 30.18 851 25.13 3.9 39 47 -6.3 20.7
12:40 1022 30.18 851 25.13 4.1 39.3 46 -6.5 20.2
12:45 1022 30.18 851 25.13 4.5 40.1 45 -6.5 20.3
12:50 1022 30.18 851 25.13 4.5 40 46 -6.1 21
12:55 1022 30.18 851 25.13 4.2 39.6 46 -6.4 20.4
13:00 1022 30.18 851 25.13 4 39.2 47 -6.2 20.8
13:05 1022 30.18 851 25.13 3.8 38.9 47 -6.4 20.5
13:10 1022 30.18 851 25.13 4.6 40.2 44 -6.7 19.9
13:15 1022 30.18 851 25.13 5.6 42 43 -5.9 21.3
13:20 1022 30.18 851 25.13 4.8 40.6 43 -6.6 20
13:25 1022 30.18 851 25.13 4.5 40.2 47 -5.8 21.5
13:30 1022 30.18 851 25.13 4.3 39.7 45 -6.6 20.1
13:35 1022 30.18 851 25.13 4.9 40.8 44 -6.4 20.5
13:40 1022 30.18 851 25.13 5 41.1 43 -6.6 20.2
13:45 1022 30.18 851 25.13 5.3 41.6 44 -5.9 21.3
13:50 1022 30.18 851 25.13 5.6 42.1 40 -6.9 19.5
13:55 1022 30.18 851 25.13 5.3 41.5 44 -6 21.2
14:00 1022 30.18 851 25.13 5.2 41.3 43 -6.3 20.7
14:05 1022 30.18 851 25.13 5 41 45 -6.1 21.1
14:10 1022 30.18 851 25.13 4.9 40.8 42 -7 19.4
14:15 1022 30.18 851 25.13 5.7 42.2 45 -5.3 22.5
14:20 1022 30.18 851 25.13 5 40.9 42 -6.9 19.7
14:25 1022 30.18 851 25.13 4.5 40.1 42 -7.3 18.8
14:30 1022 30.18 851 25.13 5.1 41.2 39 -7.7 18.1
14:35 1022 30.18 851 25.13 5.2 41.4 39 -7.7 18.1
14:40 1022 30.18 851 25.13 4.8 40.6 39 -8.2 17.3
14:45 1022 30.18 851 25.13 4.8 40.7 40 -7.7 18.2
14:50 1022 30.18 851 25.13 4.7 40.5 41 -7.5 18.5
14:55 1022 30.18 851 25.13 5.5 41.9 35 -8.9 16
15:00 1022 30.18 851 25.13 6.2 43.2 35 -8.2 17.2
15:05 1022 30.18 851 25.13 6.9 44.4 36 -7.2 19.1
15:10 1021 30.15 851 25.13 5.8 42.4 37 -7.9 17.8
15:15 1021 30.15 851 25.13 5.8 42.4 38 -7.4 18.8
15:20 1021 30.15 851 25.13 5.6 42.2 39 -7.3 18.8
15:25 1021 30.15 851 25.13 6.2 43.2 37 -7.4 18.7
15:30 1021 30.15 851 25.13 6 42.8 38 -7.3 18.8
15:35 1021 30.15 851 25.13 5.5 41.9 37 -8.2 17.3
15:40 1021 30.15 851 25.13 6.7 44.1 36 -7.5 18.6
15:45 1021 30.15 851 25.13 6.1 43 40 -6.6 20.2
15:50 1021 30.15 851 25.13 5.5 42 38 -7.7 18.2
15:55 1021 30.15 851 25.13 5.7 42.3 40 -6.7 20
16:00 1021 30.15 851 25.13 5.5 42 39 -7.4 18.7
16:05 1021 30.15 851 25.13 5.2 41.4 40 -7.2 19.1
16:10 1021 30.15 851 25.13 5.1 41.2 40 -7.4 18.7
16:15 1021 30.15 851 25.13 5.2 41.4 40 -7.4 18.7
16:20 1021 30.15 851 25.13 5.6 42.1 38 -7.7 18.1
16:25 1022 30.18 851 25.13 6.9 44.5 35 -7.6 18.3
16:30 1022 30.18 851 25.13 7.7 45.9 32 -8.1 17.5
16:35 1022 30.18 851 25.13 8 46.4 33 -7.3 18.8
16:40 1022 30.18 851 25.13 7.6 45.6 33 -7.6 18.3
16:45 1022 30.18 851 25.13 7.6 45.7 32 -8 17.6
16:50 1022 30.18 851 25.13 7.6 45.7 33 -7.7 18.2
16:55 1022 30.18 851 25.13 7.8 46.1 34 -6.9 19.6
17:00 1022 30.18 851 25.13 6.7 44 34 -8 17.6
17:05 1022 30.18 851 25.13 8.1 46.6 32 -7.7 18.1
17:10 1022 30.18 851 25.13 7.8 46 36 -6.2 20.8
17:15 1022 30.18 851 25.13 5.9 42.6 41 -6.5 20.3
17:20 1022 30.18 851 25.13 4.9 40.8 43 -6.8 19.8
17:25 1022 30.18 851 25.13 4.7 40.4 42 -7.1 19.2
17:30 1022 30.18 851 25.13 4.8 40.6 42 -7 19.4
17:35 1022 30.18 851 25.13 4.8 40.7 42 -7.1 19.2
17:40 1022 30.18 851 25.13 5.1 41.1 41 -7.1 19.3
17:45 1022 30.18 851 25.13 5.5 41.9 40 -7 19.4
17:50 1022 30.18 851 25.13 6 42.8 38 -7.4 18.7
17:55 1022 30.18 851 25.13 6.6 43.9 36 -7.3 18.9
18:00 1022 30.18 851 25.13 7 44.6 35 -7.4 18.8
18:05 1022 30.18 851 25.13 7 44.5 36 -7.1 19.2
18:10 1022 30.18 851 25.13 6.5 43.6 37 -7.1 19.2
18:15 1022 30.18 851 25.13 6.8 44.3 35 -7.5 18.4
18:20 1022 30.18 851 25.13 6.4 43.5 38 -7 19.3
18:25 1022 30.18 851 25.13 5.8 42.4 39 -7.2 19
18:30 1022 30.18 851 25.13 5.9 42.5 38 -7.4 18.7
18:35 1022 30.18 851 25.13 5.8 42.5 37 -7.6 18.3
18:40 1022 30.18 851 25.13 5.8 42.5 40 -6.9 19.6
18:45 1022 30.18 851 25.13 5.5 41.8 41 -6.6 20.1
18:50 1022 30.18 851 25.13 5 41 43 -6.7 19.9
18:55 1022 30.18 851 25.13 4.7 40.5 42 -7.1 19.3
19:00 1022 30.18 851 25.13 4.7 40.4 42 -7.1 19.3
19:05 1022 30.18 851 25.13 4.8 40.7 42 -7.1 19.3
19:10 1022 30.18 851 25.13 4.8 40.6 42 -7 19.3
19:15 1022 30.18 851 25.13 4.5 40.1 45 -6.5 20.3
19:20 1022 30.18 851 25.13 4.4 39.9 44 -6.8 19.7
19:25 1022 30.18 851 25.13 4.3 39.7 45 -6.6 20.1
19:30 1022 30.18 851 25.13 4.1 39.4 45 -6.8 19.8
19:35 1022 30.18 851 25.13 4 39.2 46 -6.7 20
19:40 1022 30.18 851 25.13 3.9 39.1 46 -6.6 20.1
19:45 1022 30.18 851 25.13 3.9 39 46 -6.6 20
19:50 1022 30.18 851 25.13 3.7 38.6 47 -6.5 20.3
19:55 1022 30.18 851 25.13 3.5 38.3 48 -6.6 20.2
20:00 1022 30.18 851 25.13 3.4 38.1 50 -6.1 21
20:05 1022 30.18 851 25.13 3.1 37.5 53 -5.7 21.7
20:10 1022 30.18 851 25.13 2.8 37 53 -5.7 21.7
20:15 1022 30.18 851 25.13 2.6 36.7 55 -5.5 22.1
20:20 1022 30.18 851 25.13 2.3 36.2 56 -5.6 21.9
20:25 1022 30.18 851 25.13 2 35.6 58 -5.5 22.1
20:30 1022 30.18 852 25.16 1.5 34.8 59 -5.7 21.7
20:35 1022 30.18 852 25.16 1.3 34.3 60 -5.7 21.7
20:40 1022 30.18 852 25.16 1 33.8 60 -5.8 21.6
20:45 1022 30.18 852 25.16 0.9 33.7 61 -5.9 21.5
20:50 1022 30.18 852 25.16 0.9 33.6 61 -5.8 21.6
20:55 1022 30.18 852 25.16 0.8 33.4 61 -5.8 21.6
21:00 1022 30.18 852 25.16 0.6 33.1 61 -6.1 21
21:05 1022 30.18 852 25.16 0.7 33.2 59 -6.4 20.6
21:10 1022 30.18 852 25.16 0.8 33.4 61 -5.9 21.4
21:15 1022 30.18 852 25.16 0.6 33.1 62 -5.9 21.5
21:20 1023 30.21 852 25.16 0.4 32.7 62 -6 21.1
21:25 1023 30.21 852 25.16 0.2 32.3 63 -6.1 21
21:30 1023 30.21 852 25.16 0 32.1 64 -6 21.3
21:35 1023 30.21 852 25.16 -0.2 31.7 66 -5.8 21.5
21:40 1023 30.21 852 25.16 -0.3 31.5 66 -5.9 21.4
21:45 1023 30.21 852 25.16 -0.4 31.4 67 -5.7 21.8
21:50 1023 30.21 852 25.16 -0.4 31.3 68 -5.6 21.9
21:55 1023 30.21 852 25.16 -0.4 31.2 68 -5.7 21.8
22:00 1023 30.21 852 25.16 -0.3 31.4 66 -5.9 21.3
22:05 1023 30.21 852 25.16 -0.1 31.8 66 -5.8 21.5
22:10 1023 30.21 852 25.16 -0.1 31.8 65 -5.9 21.5
22:15 1023 30.21 852 25.16 -0 31.9 66 -5.7 21.7
22:20 1023 30.21 852 25.16 -0.2 31.6 65 -5.9 21.4
22:25 1023 30.21 852 25.16 -0.3 31.5 66 -5.8 21.6
22:30 1023 30.21 852 25.16 -0.4 31.2 67 -5.9 21.4
22:35 1023 30.21 852 25.16 -0.5 31 66 -6.1 21.1
22:40 1023 30.21 852 25.16 -0.6 31 66 -6.2 20.8
22:45 1023 30.21 852 25.16 -0.5 31.1 65 -6.4 20.5
22:50 1023 30.21 852 25.16 -0.4 31.2 65 -6.2 20.8
22:55 1023 30.21 852 25.16 -0.6 31 66 -6.2 20.9
23:00 1023 30.21 852 25.16 -0.7 30.7 66 -6.2 20.8
23:05 1023 30.21 852 25.16 -0.8 30.6 67 -6.2 20.8
23:10 1023 30.21 852 25.16 -0.8 30.5 66 -6.3 20.6
23:15 1023 30.21 852 25.16 -0.8 30.5 66 -6.4 20.4
23:20 1023 30.21 852 25.16 -0.7 30.7 65 -6.5 20.3
23:25 1023 30.21 852 25.16 -0.8 30.6 66 -6.4 20.4
23:30 1023 30.21 852 25.16 -0.8 30.6 65 -6.6 20.1
23:35 1023 30.21 852 25.16 -0.6 30.9 64 -6.6 20.2
23:40 1023 30.21 852 25.16 -0.7 30.8 65 -6.6 20.2
23:45 1023 30.21 852 25.16 -0.8 30.6 65 -6.6 20.1
23:50 1023 30.21 852 25.16 -0.9 30.4 65 -6.7 20
23:55 1023 30.21 852 25.16 -1 30.2 66 -6.7 20
24:00 1023 30.21 852 25.16 -1.1 30 66 -6.7 19.9